createdAt,value
2023-11-22T00:01:21.386Z,79.21
2023-11-22T00:03:53.233Z,79.25
2023-11-22T00:06:25.032Z,79.44
2023-11-22T00:08:56.840Z,78.92
2023-11-22T00:11:28.799Z,79.00
2023-11-22T00:14:00.703Z,78.42
2023-11-22T00:16:33.293Z,79.51
2023-11-22T00:19:05.182Z,78.91
2023-11-22T00:21:37.119Z,79.43
2023-11-22T00:24:10.068Z,78.67
2023-11-22T00:26:42.898Z,78.72
2023-11-22T00:29:14.841Z,78.12
2023-11-22T00:31:46.668Z,78.13
2023-11-22T00:34:21.343Z,78.38
2023-11-22T00:36:53.644Z,77.44
2023-11-22T00:39:25.944Z,77.29
2023-11-22T00:41:57.725Z,77.05
2023-11-22T00:44:29.571Z,77.33
2023-11-22T00:47:01.632Z,76.65
2023-11-22T00:49:33.630Z,76.40
2023-11-22T00:52:05.548Z,76.63
2023-11-22T00:54:37.321Z,77.48
2023-11-22T00:57:09.099Z,77.04
2023-11-22T00:59:41.061Z,76.70
2023-11-22T01:02:13.034Z,76.94
2023-11-22T01:04:44.852Z,77.77
2023-11-22T01:07:16.635Z,77.21
2023-11-22T01:09:48.427Z,77.66
2023-11-22T01:12:20.673Z,77.61
2023-11-22T01:14:53.019Z,77.46
2023-11-22T01:17:25.199Z,77.96
2023-11-22T01:19:57.090Z,77.07
2023-11-22T01:22:28.882Z,77.06
2023-11-22T01:25:00.729Z,77.73
2023-11-22T01:27:32.510Z,78.02
2023-11-22T01:30:04.931Z,77.49
2023-11-22T01:32:37.117Z,78.15
2023-11-22T01:35:09.343Z,78.13
2023-11-22T01:37:41.136Z,77.51
2023-11-22T01:40:14.125Z,77.77
2023-11-22T01:42:46.081Z,77.44
2023-11-22T01:45:19.168Z,78.11
2023-11-22T01:47:52.961Z,77.33
2023-11-22T01:50:24.856Z,77.27
2023-11-22T01:52:56.777Z,76.90
2023-11-22T01:55:29.017Z,77.47
2023-11-22T01:58:00.882Z,76.78
2023-11-22T02:00:38.214Z,76.54
2023-11-22T02:03:10.187Z,75.66
2023-11-22T02:05:43.651Z,76.34
2023-11-22T02:08:15.597Z,76.08
2023-11-22T02:10:50.667Z,76.03
2023-11-22T02:13:23.655Z,76.35
2023-11-22T02:15:57.472Z,77.11
2023-11-22T02:18:29.873Z,76.75
2023-11-22T02:21:01.871Z,77.98
2023-11-22T02:23:33.991Z,77.10
2023-11-22T02:26:05.967Z,77.00
2023-11-22T02:28:37.724Z,77.54
2023-11-22T02:31:09.808Z,78.06
2023-11-22T02:33:43.238Z,78.18
2023-11-22T02:36:15.012Z,77.95
2023-11-22T02:38:48.311Z,77.02
2023-11-22T02:41:20.335Z,76.40
2023-11-22T02:43:52.264Z,77.10
2023-11-22T02:46:24.931Z,76.50
2023-11-22T02:48:56.723Z,77.24
2023-11-22T02:51:28.587Z,75.95
2023-11-22T02:54:00.369Z,76.38
2023-11-22T02:56:32.227Z,76.63
2023-11-22T02:59:04.335Z,76.54
2023-11-22T03:01:36.126Z,75.20
2023-11-22T03:04:07.975Z,75.85
2023-11-22T03:06:39.755Z,75.42
2023-11-22T03:09:11.524Z,76.00
2023-11-22T03:11:43.400Z,76.63
2023-11-22T03:14:15.217Z,76.25
2023-11-22T03:16:47.201Z,75.25
2023-11-22T03:19:20.925Z,75.77
2023-11-22T03:21:52.702Z,76.44
2023-11-22T03:24:24.476Z,76.66
2023-11-22T03:26:57.488Z,75.54
2023-11-22T03:29:30.635Z,76.15
2023-11-22T03:32:02.628Z,75.61
2023-11-22T03:34:34.495Z,75.33
2023-11-22T03:37:06.315Z,75.86
2023-11-22T03:39:38.315Z,75.90
2023-11-22T03:42:10.085Z,75.74
2023-11-22T03:44:42.032Z,75.60
2023-11-22T03:47:16.845Z,75.32
2023-11-22T03:49:48.712Z,75.12
2023-11-22T03:52:20.663Z,74.98
2023-11-22T03:54:52.574Z,75.18
2023-11-22T03:57:24.402Z,74.71
2023-11-22T03:59:56.232Z,74.77
2023-11-22T04:02:30.851Z,74.88
2023-11-22T04:05:02.868Z,75.66
2023-11-22T04:07:34.940Z,75.59
2023-11-22T04:10:07.419Z,75.28
2023-11-22T04:12:39.356Z,76.29
2023-11-22T04:15:11.734Z,75.12
2023-11-22T04:17:44.383Z,75.19
2023-11-22T04:20:16.713Z,75.52
2023-11-22T04:22:48.589Z,75.85
2023-11-22T04:25:20.428Z,77.35
2023-11-22T04:27:52.671Z,75.95
2023-11-22T04:30:24.448Z,75.20
2023-11-22T04:32:56.364Z,75.93
2023-11-22T04:35:35.531Z,76.14
2023-11-22T04:38:07.375Z,76.13
2023-11-22T04:40:39.246Z,75.91
2023-11-22T04:43:11.081Z,76.04
2023-11-22T04:45:43.015Z,75.88
2023-11-22T04:48:16.632Z,76.42
2023-11-22T04:50:48.443Z,76.44
2023-11-22T04:53:20.671Z,76.73
2023-11-22T04:55:52.503Z,76.68
2023-11-22T04:58:24.285Z,76.08
2023-11-22T05:00:56.187Z,75.33
2023-11-22T05:03:28.020Z,75.36
2023-11-22T05:06:00.238Z,75.31
2023-11-22T05:08:32.060Z,75.64
2023-11-22T05:11:04.594Z,75.24
2023-11-22T05:13:36.450Z,74.26
2023-11-22T05:16:08.790Z,74.59
2023-11-22T05:18:40.610Z,75.10
2023-11-22T05:21:12.406Z,73.82
2023-11-22T05:23:46.422Z,74.40
2023-11-22T05:26:18.519Z,74.71
2023-11-22T05:28:50.365Z,74.64
2023-11-22T05:31:22.567Z,74.60
2023-11-22T05:33:54.341Z,74.15
2023-11-22T05:36:26.144Z,74.43
2023-11-22T05:39:00.898Z,74.36
2023-11-22T05:41:32.822Z,74.70
2023-11-22T05:44:04.778Z,74.24
2023-11-22T05:46:36.596Z,74.78
2023-11-22T05:49:09.758Z,75.25
2023-11-22T05:51:41.624Z,75.31
2023-11-22T05:54:14.100Z,75.60
2023-11-22T05:56:45.968Z,75.64
2023-11-22T05:59:17.772Z,75.44
2023-11-22T06:01:49.646Z,75.91
2023-11-22T06:04:21.625Z,75.48
2023-11-22T06:06:53.626Z,75.68
2023-11-22T06:09:25.668Z,76.52
2023-11-22T06:11:57.476Z,77.49
2023-11-22T06:14:29.358Z,76.78
2023-11-22T06:17:01.186Z,76.66
2023-11-22T06:19:33.115Z,76.80
2023-11-22T06:22:05.251Z,76.87
2023-11-22T06:24:37.513Z,77.11
2023-11-22T06:27:09.327Z,77.00
2023-11-22T06:29:41.094Z,77.33
2023-11-22T06:32:12.929Z,77.21
2023-11-22T06:34:44.733Z,77.30
2023-11-22T06:37:16.517Z,77.68
2023-11-22T06:39:48.525Z,77.30
2023-11-22T06:42:23.665Z,77.55
2023-11-22T06:44:59.730Z,77.61
2023-11-22T06:47:31.740Z,77.38
2023-11-22T06:50:10.495Z,77.17
2023-11-22T06:52:43.395Z,76.78
2023-11-22T06:55:15.414Z,77.03
2023-11-22T06:57:47.254Z,76.58
2023-11-22T07:00:19.451Z,76.35
2023-11-22T07:02:51.280Z,76.14
2023-11-22T07:05:23.220Z,75.63
2023-11-22T07:07:56.950Z,75.01
2023-11-22T07:10:28.801Z,74.88
2023-11-22T07:13:02.799Z,74.84
2023-11-22T07:15:34.639Z,74.45
2023-11-22T07:18:06.729Z,73.93
2023-11-22T07:20:40.594Z,74.04
2023-11-22T07:23:15.311Z,73.58
2023-11-22T07:25:47.186Z,73.28
2023-11-22T07:28:19.005Z,73.99
2023-11-22T07:30:51.042Z,73.28
2023-11-22T07:33:22.872Z,73.05
2023-11-22T07:35:54.980Z,73.20
2023-11-22T07:38:26.934Z,73.21
2023-11-22T07:40:59.430Z,73.41
2023-11-22T07:43:31.905Z,73.35
2023-11-22T07:46:14.744Z,72.67
2023-11-22T07:48:48.817Z,72.46
2023-11-22T07:51:20.745Z,72.54
2023-11-22T07:53:52.530Z,72.88
2023-11-22T07:56:24.445Z,72.87
2023-11-22T07:58:56.358Z,72.56
2023-11-22T08:01:31.275Z,72.35
2023-11-22T08:04:04.093Z,71.28
2023-11-22T08:06:36.317Z,71.81
2023-11-22T08:09:10.108Z,71.53
2023-11-22T08:11:42.447Z,71.02
2023-11-22T08:14:15.560Z,70.51
2023-11-22T08:16:47.489Z,71.49
2023-11-22T08:19:19.266Z,71.26
2023-11-22T08:21:51.185Z,70.16
2023-11-22T08:24:23.412Z,70.42
2023-11-22T08:26:55.312Z,69.44
2023-11-22T08:29:27.172Z,69.20
2023-11-22T08:31:59.415Z,69.13
2023-11-22T08:34:31.186Z,68.59
2023-11-22T08:37:03.348Z,68.70
2023-11-22T08:39:35.561Z,67.81
2023-11-22T08:42:10.761Z,69.07
2023-11-22T08:44:42.946Z,67.66
2023-11-22T08:47:14.886Z,67.80
2023-11-22T08:49:46.795Z,67.59
2023-11-22T08:52:18.553Z,67.47
2023-11-22T08:54:51.660Z,66.65
2023-11-22T08:57:23.528Z,66.44
2023-11-22T08:59:55.903Z,65.77
2023-11-22T09:02:28.237Z,66.29
2023-11-22T09:05:00.336Z,66.47
2023-11-22T09:07:32.705Z,65.46
2023-11-22T09:10:11.533Z,65.48
2023-11-22T09:12:45.437Z,64.94
2023-11-22T09:15:19.076Z,65.51
2023-11-22T09:17:51.854Z,65.69
2023-11-22T09:20:24.844Z,64.96
2023-11-22T09:22:56.871Z,65.43
2023-11-22T09:25:29.556Z,63.43
2023-11-22T09:28:01.550Z,64.80
2023-11-22T09:30:37.193Z,64.36
2023-11-22T09:33:12.743Z,63.67
2023-11-22T09:35:47.307Z,63.34
2023-11-22T09:38:19.468Z,63.12
2023-11-22T09:40:52.540Z,62.62
2023-11-22T09:43:26.230Z,64.78
2023-11-22T09:46:00.011Z,63.18
2023-11-22T09:48:32.934Z,63.16
2023-11-22T09:51:22.505Z,62.03
2023-11-22T09:54:05.892Z,61.85
2023-11-22T09:56:38.599Z,61.66
2023-11-22T09:59:15.200Z,61.81
2023-11-22T10:01:47.162Z,60.70
2023-11-22T10:04:19.178Z,60.86
2023-11-22T10:06:51.237Z,59.47
2023-11-22T10:09:25.417Z,61.01
2023-11-22T10:12:03.344Z,62.01
2023-11-22T10:14:35.865Z,60.39
2023-11-22T10:17:09.348Z,61.93
2023-11-22T10:19:41.794Z,60.94
2023-11-22T10:22:18.727Z,59.55
2023-11-22T10:24:50.585Z,60.38
2023-11-22T10:27:22.506Z,59.87
2023-11-22T10:29:54.457Z,60.02
2023-11-22T10:32:26.464Z,59.92
2023-11-22T10:34:59.142Z,60.04
2023-11-22T10:37:31.012Z,60.66
2023-11-22T10:40:05.683Z,60.17
2023-11-22T10:42:39.633Z,59.36
2023-11-22T10:45:12.005Z,60.29
2023-11-22T10:47:44.811Z,59.83
2023-11-22T10:50:17.112Z,60.38
2023-11-22T10:52:53.865Z,60.72
2023-11-22T10:55:28.597Z,60.11
2023-11-22T10:58:04.068Z,60.96
2023-11-22T11:00:38.124Z,59.40
2023-11-22T11:03:23.710Z,59.96
2023-11-22T11:06:06.066Z,59.10
2023-11-22T11:08:39.790Z,59.72
2023-11-22T11:11:11.806Z,60.75
2023-11-22T11:13:44.881Z,60.56
2023-11-22T11:16:18.270Z,59.79
2023-11-22T11:18:50.894Z,60.54
2023-11-22T11:21:23.153Z,59.54
2023-11-22T11:23:59.742Z,58.62
2023-11-22T11:26:37.944Z,59.80
2023-11-22T11:29:33.570Z,59.93
2023-11-22T11:32:05.985Z,60.05
2023-11-22T11:34:57.567Z,59.15
2023-11-22T11:37:31.737Z,59.26
2023-11-22T11:40:35.960Z,58.89
2023-11-22T11:43:08.191Z,59.86
2023-11-22T11:45:48.900Z,59.18
2023-11-22T11:48:21.794Z,56.22
2023-11-22T11:50:54.011Z,56.44
2023-11-22T11:53:26.097Z,57.31
2023-11-22T11:55:59.138Z,59.78
2023-11-22T11:58:31.154Z,59.43
2023-11-22T12:01:03.999Z,56.92
2023-11-22T12:03:39.539Z,57.65
2023-11-22T12:06:15.649Z,58.21
2023-11-22T12:08:48.681Z,59.27
2023-11-22T12:11:20.980Z,60.54
2023-11-22T12:13:53.772Z,57.96
2023-11-22T12:16:25.676Z,58.12
2023-11-22T12:19:00.060Z,57.17
2023-11-22T12:21:32.381Z,57.96
2023-11-22T12:24:07.595Z,57.41
2023-11-22T12:26:43.325Z,57.67
2023-11-22T12:29:19.872Z,57.54
2023-11-22T12:31:54.424Z,58.18
2023-11-22T12:34:27.686Z,59.32
2023-11-22T12:37:07.559Z,57.90
2023-11-22T12:39:39.360Z,58.40
2023-11-22T12:42:11.683Z,56.85
2023-11-22T12:44:56.069Z,57.80
2023-11-22T12:47:37.384Z,58.10
2023-11-22T12:50:29.589Z,58.80
2023-11-22T12:53:09.781Z,57.70
2023-11-22T12:55:51.504Z,58.64
2023-11-22T12:58:25.382Z,58.20
2023-11-22T13:01:02.187Z,58.09
2023-11-22T13:03:34.971Z,58.58
2023-11-22T13:06:07.634Z,58.58
2023-11-22T13:08:39.684Z,57.23
2023-11-22T13:11:11.557Z,57.84
2023-11-22T13:13:43.352Z,57.38
2023-11-22T13:16:17.873Z,57.98
2023-11-22T13:18:50.131Z,58.78
2023-11-22T13:21:22.859Z,59.38
2023-11-22T13:23:54.744Z,59.76
2023-11-22T13:26:27.625Z,58.70
2023-11-22T13:29:00.352Z,59.86
2023-11-22T13:31:32.218Z,58.65
2023-11-22T13:34:04.150Z,59.04
2023-11-22T13:36:36.628Z,59.08
2023-11-22T13:39:08.437Z,61.14
2023-11-22T13:41:40.389Z,62.07
2023-11-22T13:44:12.540Z,60.68
2023-11-22T13:46:44.580Z,60.38
2023-11-22T13:49:16.529Z,60.52
2023-11-22T13:51:49.612Z,60.70
2023-11-22T13:54:21.728Z,61.21
2023-11-22T13:56:54.585Z,61.33
2023-11-22T13:59:27.737Z,61.98
2023-11-22T14:01:59.579Z,63.21
2023-11-22T14:04:32.041Z,63.12
2023-11-22T14:07:03.984Z,62.06
2023-11-22T14:09:38.046Z,63.55
2023-11-22T14:12:10.311Z,63.75
2023-11-22T14:14:42.266Z,65.05
2023-11-22T14:17:15.425Z,65.46
2023-11-22T14:19:53.429Z,66.48
2023-11-22T14:22:26.608Z,66.18
2023-11-22T14:24:58.504Z,66.00
2023-11-22T14:27:32.047Z,66.62
2023-11-22T14:30:07.294Z,66.80
2023-11-22T14:32:39.215Z,66.13
2023-11-22T14:35:12.851Z,66.77
2023-11-22T14:37:46.112Z,67.23
2023-11-22T14:40:21.353Z,67.97
2023-11-22T14:42:54.256Z,68.27
2023-11-22T14:45:28.437Z,68.45
2023-11-22T14:48:00.500Z,69.10
2023-11-22T14:50:32.799Z,69.66
2023-11-22T14:53:04.976Z,70.20
2023-11-22T14:55:41.795Z,69.74
2023-11-22T14:58:13.631Z,69.11
2023-11-22T15:00:46.109Z,69.52
2023-11-22T15:03:18.124Z,69.66
2023-11-22T15:05:50.026Z,70.06
2023-11-22T15:08:22.110Z,70.78
2023-11-22T15:10:53.946Z,70.46
2023-11-22T15:13:26.070Z,69.50
2023-11-22T15:16:01.346Z,69.80
2023-11-22T15:18:33.510Z,70.13
2023-11-22T15:21:06.824Z,70.70
2023-11-22T15:23:38.720Z,70.45
2023-11-22T15:26:10.702Z,70.74
2023-11-22T15:28:42.521Z,70.41
2023-11-22T15:31:18.203Z,72.15
2023-11-22T15:33:50.333Z,72.09
2023-11-22T15:36:22.285Z,71.82
2023-11-22T15:38:54.247Z,71.88
2023-11-22T15:41:28.236Z,71.61
2023-11-22T15:44:00.204Z,71.61
2023-11-22T15:46:32.285Z,71.78
2023-11-22T15:49:05.220Z,71.52
2023-11-22T15:51:37.723Z,71.54
2023-11-22T15:54:09.604Z,71.18
2023-11-22T15:56:41.771Z,71.78
2023-11-22T15:59:13.718Z,71.64
2023-11-22T16:01:46.114Z,71.67
2023-11-22T16:04:18.610Z,71.58
2023-11-22T16:06:52.327Z,72.11
2023-11-22T16:09:24.284Z,72.20
2023-11-22T16:11:56.203Z,72.13
2023-11-22T16:14:28.080Z,72.15
2023-11-22T16:17:00.048Z,72.15
2023-11-22T16:19:31.908Z,72.08
2023-11-22T16:22:04.752Z,71.92
2023-11-22T16:24:37.127Z,72.16
2023-11-22T16:27:09.033Z,72.08
2023-11-22T16:29:40.886Z,72.10
2023-11-22T16:32:12.978Z,72.52
2023-11-22T16:34:44.785Z,72.61
2023-11-22T16:37:16.632Z,73.16
2023-11-22T16:39:48.610Z,72.49
2023-11-22T16:42:22.000Z,72.10
2023-11-22T16:44:53.854Z,72.37
2023-11-22T16:47:26.138Z,71.12
2023-11-22T16:49:58.073Z,70.76
2023-11-22T16:52:30.597Z,71.51
2023-11-22T16:55:04.931Z,71.58
2023-11-22T16:57:37.621Z,71.93
2023-11-22T17:00:14.302Z,72.66
2023-11-22T17:02:49.945Z,72.07
2023-11-22T17:05:22.080Z,70.94
2023-11-22T17:07:55.105Z,71.25
2023-11-22T17:10:45.215Z,70.15
2023-11-22T17:13:19.198Z,71.72
2023-11-22T17:15:51.104Z,71.09
2023-11-22T17:18:23.897Z,71.54
2023-11-22T17:20:57.639Z,72.30
2023-11-22T17:23:29.908Z,72.54
2023-11-22T17:26:01.819Z,72.30
2023-11-22T17:28:35.282Z,71.83
2023-11-22T17:31:07.159Z,70.77
2023-11-22T17:33:39.130Z,70.49
2023-11-22T17:36:11.157Z,70.88
2023-11-22T17:38:43.115Z,71.40
2023-11-22T17:41:14.936Z,72.30
2023-11-22T17:43:46.819Z,72.65
2023-11-22T17:46:18.656Z,72.65
2023-11-22T17:48:52.285Z,71.86
2023-11-22T17:51:24.914Z,70.98
2023-11-22T17:53:56.762Z,70.54
2023-11-22T17:56:28.626Z,71.53
2023-11-22T17:59:00.485Z,71.87
2023-11-22T18:01:32.770Z,71.70
2023-11-22T18:04:04.919Z,71.78
2023-11-22T18:06:36.840Z,71.72
2023-11-22T18:09:11.321Z,71.02
2023-11-22T18:11:43.173Z,70.55
2023-11-22T18:14:15.828Z,71.32
2023-11-22T18:16:47.760Z,71.90
2023-11-22T18:19:19.674Z,72.34
2023-11-22T18:21:51.603Z,71.75
2023-11-22T18:24:24.648Z,71.28
2023-11-22T18:26:56.607Z,71.71
2023-11-22T18:29:29.138Z,71.99
2023-11-22T18:32:01.230Z,72.16
2023-11-22T18:34:33.938Z,72.28
2023-11-22T18:37:06.848Z,72.12
2023-11-22T18:39:38.882Z,72.60
2023-11-22T18:42:11.255Z,72.71
2023-11-22T18:44:43.664Z,72.62
2023-11-22T18:47:15.564Z,73.16
2023-11-22T18:49:48.090Z,73.10
2023-11-22T18:52:19.933Z,72.84
2023-11-22T18:54:51.775Z,73.18
2023-11-22T18:57:23.606Z,72.96
2023-11-22T18:59:55.466Z,72.95
2023-11-22T19:02:27.414Z,73.40
2023-11-22T19:04:59.897Z,73.00
2023-11-22T19:07:31.796Z,72.31
2023-11-22T19:10:03.946Z,73.35
2023-11-22T19:12:36.049Z,72.99
2023-11-22T19:15:08.820Z,73.73
2023-11-22T19:17:41.099Z,73.25
2023-11-22T19:20:13.009Z,73.92
2023-11-22T19:22:44.858Z,73.93
2023-11-22T19:25:17.035Z,74.01
2023-11-22T19:27:48.879Z,73.79
2023-11-22T19:30:20.688Z,73.81
2023-11-22T19:32:53.087Z,73.97
2023-11-22T19:35:24.971Z,73.66
2023-11-22T19:37:57.302Z,74.16
2023-11-22T19:40:31.017Z,73.42
2023-11-22T19:43:05.227Z,73.69
2023-11-22T19:45:37.255Z,73.88
2023-11-22T19:48:09.457Z,73.83
2023-11-22T19:50:41.458Z,74.24
2023-11-22T19:53:13.321Z,74.29
2023-11-22T19:55:45.170Z,74.10
2023-11-22T19:58:17.361Z,74.60
2023-11-22T20:00:49.372Z,74.35
2023-11-22T20:03:21.342Z,74.43
2023-11-22T20:05:54.601Z,74.82
2023-11-22T20:08:26.694Z,74.58
2023-11-22T20:10:58.886Z,74.00
2023-11-22T20:13:30.886Z,73.83
2023-11-22T20:16:02.802Z,74.06
2023-11-22T20:18:34.886Z,73.69
2023-11-22T20:21:06.852Z,73.64
2023-11-22T20:23:38.711Z,73.63
2023-11-22T20:26:11.468Z,74.12
2023-11-22T20:28:43.685Z,74.23
2023-11-22T20:31:17.163Z,73.58
2023-11-22T20:33:49.242Z,73.71
2023-11-22T20:36:21.376Z,73.85
2023-11-22T20:38:53.481Z,74.16
2023-11-22T20:41:26.721Z,73.71
2023-11-22T20:44:00.441Z,73.66
2023-11-22T20:46:32.460Z,73.72
2023-11-22T20:49:04.427Z,74.20
2023-11-22T20:51:37.179Z,74.40
2023-11-22T20:54:09.976Z,74.55
2023-11-22T20:56:41.948Z,73.80
2023-11-22T20:59:14.037Z,73.94
2023-11-22T21:01:46.091Z,74.06
2023-11-22T21:04:18.207Z,74.63
2023-11-22T21:06:50.113Z,73.76
2023-11-22T21:09:22.886Z,74.51
2023-11-22T21:11:55.229Z,74.02
2023-11-22T21:14:27.170Z,74.03
2023-11-22T21:17:00.710Z,74.76
2023-11-22T21:19:32.750Z,75.04
2023-11-22T21:22:04.888Z,74.49
2023-11-22T21:24:36.975Z,74.82
2023-11-22T21:27:09.429Z,74.98
2023-11-22T21:29:41.657Z,74.70
2023-11-22T21:32:13.908Z,75.25
2023-11-22T21:34:45.773Z,75.01
2023-11-22T21:37:17.738Z,74.99
2023-11-22T21:39:49.952Z,75.39
2023-11-22T21:42:21.823Z,74.78
2023-11-22T21:44:53.916Z,75.35
2023-11-22T21:47:25.929Z,75.29
2023-11-22T21:49:57.783Z,75.72
2023-11-22T21:52:29.671Z,75.57
2023-11-22T21:55:01.533Z,75.30
2023-11-22T21:57:33.425Z,75.40
2023-11-22T22:00:06.244Z,75.22
2023-11-22T22:02:40.408Z,75.54
2023-11-22T22:05:13.873Z,75.49
2023-11-22T22:07:45.852Z,75.90
2023-11-22T22:10:17.769Z,75.91
2023-11-22T22:12:49.637Z,76.03
2023-11-22T22:15:22.016Z,75.97
2023-11-22T22:17:53.892Z,75.90
2023-11-22T22:20:26.524Z,76.05
2023-11-22T22:22:58.315Z,75.80
2023-11-22T22:25:30.137Z,75.79
2023-11-22T22:28:01.945Z,76.00
2023-11-22T22:30:34.961Z,76.01
2023-11-22T22:33:07.213Z,76.28
2023-11-22T22:35:39.777Z,76.48
2023-11-22T22:38:11.597Z,76.40
2023-11-22T22:40:43.414Z,76.26
2023-11-22T22:43:15.194Z,76.61
2023-11-22T22:45:47.003Z,76.12
2023-11-22T22:48:19.167Z,76.30
2023-11-22T22:50:51.662Z,76.66
2023-11-22T22:53:23.988Z,77.25
2023-11-22T22:55:55.794Z,76.96
2023-11-22T22:58:27.583Z,76.86
2023-11-22T23:00:59.503Z,76.77
2023-11-22T23:03:31.929Z,76.63
2023-11-22T23:06:04.787Z,76.95
2023-11-22T23:08:39.718Z,76.94
2023-11-22T23:11:11.525Z,77.50
2023-11-22T23:13:45.221Z,77.19
2023-11-22T23:16:17.129Z,76.98
2023-11-22T23:18:57.767Z,76.73
2023-11-22T23:21:32.456Z,76.97
2023-11-22T23:24:04.592Z,77.77
2023-11-22T23:26:37.116Z,78.07
2023-11-22T23:29:09.755Z,77.71
2023-11-22T23:31:42.682Z,77.71
2023-11-22T23:34:14.637Z,77.82
2023-11-22T23:36:46.589Z,77.91
2023-11-22T23:39:19.037Z,77.46
2023-11-22T23:41:50.891Z,78.06
2023-11-22T23:44:24.220Z,78.02
2023-11-22T23:46:56.018Z,78.02
2023-11-22T23:49:28.345Z,78.10
2023-11-22T23:52:02.151Z,77.92
2023-11-22T23:54:35.209Z,77.68
2023-11-22T23:57:07.318Z,78.22
2023-11-22T23:59:39.128Z,78.10
